createdAt,value
2019-01-27T00:03:14.420Z,7.40
2019-01-27T00:07:18.936Z,7.30
2019-01-27T00:11:23.438Z,7.30
2019-01-27T00:15:27.974Z,7.40
2019-01-27T00:19:32.495Z,7.30
2019-01-27T00:23:37.027Z,7.30
2019-01-27T00:27:41.515Z,7.30
2019-01-27T00:31:46.054Z,7.40
2019-01-27T00:35:50.592Z,7.40
2019-01-27T00:39:55.120Z,7.40
2019-01-27T00:43:59.723Z,7.40
2019-01-27T00:48:04.209Z,7.40
2019-01-27T00:52:08.751Z,7.40
2019-01-27T00:56:13.292Z,7.50
2019-01-27T01:00:20.814Z,7.40
2019-01-27T01:04:25.378Z,7.50
2019-01-27T01:08:29.862Z,7.50
2019-01-27T01:12:34.396Z,7.50
2019-01-27T01:16:38.936Z,7.50
2019-01-27T01:20:43.468Z,7.50
2019-01-27T01:24:48.013Z,7.50
2019-01-27T01:28:52.490Z,7.50
2019-01-27T01:32:57.286Z,7.50
2019-01-27T01:37:01.831Z,7.50
2019-01-27T01:41:07.115Z,7.50
2019-01-27T01:45:18.251Z,7.50
2019-01-27T01:49:22.738Z,7.50
2019-01-27T01:53:27.376Z,7.50
2019-01-27T01:57:31.915Z,7.50
2019-01-27T02:01:36.443Z,7.50
2019-01-27T02:05:40.977Z,7.50
2019-01-27T02:09:45.455Z,7.50
2019-01-27T02:13:50.031Z,7.50
2019-01-27T02:17:54.555Z,7.50
2019-01-27T02:21:59.083Z,7.50
2019-01-27T02:26:03.843Z,7.50
2019-01-27T02:30:09.199Z,7.60
2019-01-27T02:34:13.739Z,7.60
2019-01-27T02:38:18.283Z,7.60
2019-01-27T02:42:22.839Z,7.60
2019-01-27T02:46:27.349Z,7.60
2019-01-27T02:50:31.876Z,7.60
2019-01-27T02:54:36.407Z,7.60
2019-01-27T02:58:40.953Z,7.60
2019-01-27T03:02:45.486Z,7.60
2019-01-27T03:06:58.712Z,7.60
2019-01-27T03:11:03.194Z,7.70
2019-01-27T03:15:08.618Z,7.70
2019-01-27T03:19:13.141Z,7.70
2019-01-27T03:23:17.806Z,7.70
2019-01-27T03:27:22.354Z,7.70
2019-01-27T03:31:26.875Z,7.70
2019-01-27T03:35:31.426Z,7.70
2019-01-27T03:39:35.954Z,7.70
2019-01-27T03:43:40.510Z,7.70
2019-01-27T03:47:45.292Z,7.70
2019-01-27T03:51:49.829Z,7.70
2019-01-27T03:55:54.349Z,7.70
2019-01-27T03:59:58.872Z,7.60
2019-01-27T04:04:03.400Z,7.60
2019-01-27T04:08:07.923Z,7.60
2019-01-27T04:12:12.432Z,7.60
2019-01-27T04:16:16.942Z,7.50
2019-01-27T04:20:21.733Z,7.50
2019-01-27T04:24:26.289Z,7.50
2019-01-27T04:28:30.819Z,7.50
2019-01-27T04:32:35.299Z,7.50
2019-01-27T04:36:39.847Z,7.50
2019-01-27T04:40:44.431Z,7.40
2019-01-27T04:44:49.014Z,7.40
2019-01-27T04:48:53.612Z,7.40
2019-01-27T04:52:58.096Z,7.40
2019-01-27T04:57:02.621Z,7.40
2019-01-27T05:01:07.275Z,7.40
2019-01-27T05:05:11.944Z,7.30
2019-01-27T05:09:16.427Z,7.30
2019-01-27T05:13:21.080Z,7.30
2019-01-27T05:17:25.565Z,7.30
2019-01-27T05:21:30.084Z,7.30
2019-01-27T05:25:34.635Z,7.30
2019-01-27T05:29:39.126Z,7.30
2019-01-27T05:33:43.695Z,7.30
2019-01-27T05:37:48.258Z,7.30
2019-01-27T05:41:52.823Z,7.30
2019-01-27T05:45:57.334Z,7.30
2019-01-27T05:50:01.838Z,7.30
2019-01-27T05:54:06.374Z,7.30
2019-01-27T05:58:10.894Z,7.40
2019-01-27T06:02:15.433Z,7.30
2019-01-27T06:06:19.974Z,7.30
2019-01-27T06:10:24.491Z,7.30
2019-01-27T06:14:30.543Z,7.40
2019-01-27T06:18:35.142Z,7.30
2019-01-27T06:22:39.770Z,7.30
2019-01-27T06:26:44.313Z,7.30
2019-01-27T06:30:48.839Z,7.40
2019-01-27T06:34:53.358Z,7.30
2019-01-27T06:38:57.890Z,7.30
2019-01-27T06:43:02.455Z,7.40
2019-01-27T06:47:06.998Z,7.30
2019-01-27T06:51:11.519Z,7.40
2019-01-27T06:55:16.390Z,7.30
2019-01-27T06:59:41.721Z,7.30
2019-01-27T07:03:55.784Z,7.30
2019-01-27T07:08:22.307Z,7.30
2019-01-27T07:12:33.529Z,7.30
2019-01-27T07:17:06.089Z,7.30
2019-01-27T07:21:32.275Z,7.30
2019-01-27T07:26:01.553Z,7.40
2019-01-27T07:30:25.433Z,7.40
2019-01-27T07:34:49.295Z,7.40
2019-01-27T07:39:28.248Z,7.40
2019-01-27T07:43:57.779Z,7.40
2019-01-27T07:48:10.236Z,7.40
2019-01-27T07:52:32.311Z,7.40
2019-01-27T07:57:01.895Z,7.40
2019-01-27T08:01:25.419Z,7.50
2019-01-27T08:05:37.046Z,7.50
2019-01-27T08:09:56.152Z,7.50
2019-01-27T08:14:18.263Z,7.60
2019-01-27T08:18:36.755Z,7.60
2019-01-27T08:22:58.167Z,7.70
2019-01-27T08:27:30.263Z,7.70
2019-01-27T08:31:50.638Z,7.60
2019-01-27T08:36:00.099Z,7.70
2019-01-27T08:40:24.643Z,7.70
2019-01-27T08:44:46.840Z,7.80
2019-01-27T08:48:51.362Z,7.80
2019-01-27T08:52:55.890Z,7.80
2019-01-27T08:57:00.410Z,7.90
2019-01-27T09:01:27.113Z,8.00
2019-01-27T09:05:49.650Z,8.00
2019-01-27T09:10:16.303Z,8.00
2019-01-27T09:14:35.319Z,8.00
2019-01-27T09:18:58.791Z,8.00
2019-01-27T09:23:40.393Z,8.00
2019-01-27T09:28:09.663Z,8.10
2019-01-27T09:32:27.326Z,8.10
2019-01-27T09:41:19.622Z,8.20
2019-01-27T09:45:41.983Z,8.30
2019-01-27T09:50:05.439Z,8.30
2019-01-27T09:54:18.491Z,8.30
2019-01-27T09:58:39.588Z,8.40
2019-01-27T10:03:21.483Z,8.50
2019-01-27T10:07:53.923Z,8.50
2019-01-27T10:12:22.873Z,8.50
2019-01-27T10:16:33.230Z,8.60
2019-01-27T10:20:54.047Z,8.60
2019-01-27T10:25:16.261Z,8.60
2019-01-27T10:29:34.137Z,8.60
2019-01-27T10:38:07.570Z,8.60
2019-01-27T10:42:43.139Z,8.30
2019-01-27T10:47:06.599Z,8.10
2019-01-27T11:10:18.757Z,7.90
2019-01-27T11:18:11.234Z,7.90
2019-01-27T11:22:33.620Z,8.20
2019-01-27T11:26:45.669Z,8.40
2019-01-27T11:30:56.453Z,8.60
2019-01-27T11:35:25.998Z,8.70
2019-01-27T11:40:04.590Z,8.80
2019-01-27T11:44:19.858Z,8.90
2019-01-27T11:48:40.494Z,8.90
2019-01-27T11:52:52.618Z,8.90
2019-01-27T11:56:57.161Z,8.90
2019-01-27T12:01:04.424Z,8.90
2019-01-27T12:05:09.738Z,8.90
2019-01-27T12:09:14.298Z,9.00
2019-01-27T12:13:18.861Z,9.10
2019-01-27T12:17:23.422Z,9.00
2019-01-27T12:21:27.914Z,9.10
2019-01-27T12:25:32.446Z,9.10
2019-01-27T12:29:36.971Z,9.10
2019-01-27T12:33:41.631Z,9.20
2019-01-27T12:37:46.139Z,9.20
2019-01-27T12:41:50.785Z,9.20
2019-01-27T12:45:55.307Z,9.20
2019-01-27T12:49:59.831Z,9.20
2019-01-27T12:54:05.102Z,9.20
2019-01-27T12:58:09.613Z,9.20
2019-01-27T13:02:14.155Z,9.10
2019-01-27T13:06:18.674Z,9.10
2019-01-27T13:10:23.236Z,9.10
2019-01-27T13:14:27.779Z,9.10
2019-01-27T13:18:32.276Z,9.10
2019-01-27T13:22:36.807Z,9.00
2019-01-27T13:26:41.352Z,9.00
2019-01-27T13:30:45.923Z,9.00
2019-01-27T13:34:50.454Z,9.00
2019-01-27T13:38:54.995Z,9.00
2019-01-27T13:42:59.794Z,9.00
2019-01-27T13:47:04.438Z,9.00
2019-01-27T13:51:08.991Z,9.00
2019-01-27T13:55:16.634Z,9.00
2019-01-27T13:59:21.130Z,9.00
2019-01-27T14:03:25.659Z,8.90
2019-01-27T14:07:30.191Z,8.90
2019-01-27T14:11:34.726Z,8.90
2019-01-27T14:15:39.310Z,8.90
2019-01-27T14:19:43.806Z,8.80
2019-01-27T14:23:48.343Z,8.80
2019-01-27T14:27:52.909Z,8.80
2019-01-27T14:31:57.479Z,8.80
2019-01-27T14:36:01.996Z,8.80
2019-01-27T14:40:07.984Z,8.80
2019-01-27T14:44:15.381Z,8.80
2019-01-27T14:48:19.928Z,8.70
2019-01-27T14:52:24.464Z,8.70
2019-01-27T14:56:29.001Z,8.70
2019-01-27T15:00:36.660Z,8.60
2019-01-27T15:04:41.534Z,8.70
2019-01-27T15:08:46.127Z,8.60
2019-01-27T15:12:50.634Z,8.60
2019-01-27T15:16:55.179Z,8.60
2019-01-27T15:21:06.518Z,8.50
2019-01-27T15:25:11.074Z,8.50
2019-01-27T15:29:15.633Z,8.50
2019-01-27T15:33:20.215Z,8.50
2019-01-27T15:37:24.747Z,8.50
2019-01-27T15:41:29.277Z,8.50
2019-01-27T15:45:33.791Z,8.50
2019-01-27T15:49:38.313Z,8.40
2019-01-27T15:53:42.835Z,8.40
2019-01-27T15:57:48.001Z,8.40
2019-01-27T16:01:52.557Z,8.30
2019-01-27T16:05:57.030Z,8.30
2019-01-27T16:10:01.597Z,8.30
2019-01-27T16:14:09.290Z,8.30
2019-01-27T16:18:13.810Z,8.30
2019-01-27T16:22:18.339Z,8.20
2019-01-27T16:26:22.864Z,8.20
2019-01-27T16:30:37.486Z,8.20
2019-01-27T16:34:46.132Z,8.10
2019-01-27T16:38:50.654Z,8.20
2019-01-27T16:42:55.255Z,8.10
2019-01-27T16:46:59.786Z,8.10
2019-01-27T16:51:04.422Z,8.10
2019-01-27T16:55:11.391Z,8.10
2019-01-27T16:59:15.923Z,8.10
2019-01-27T17:03:20.431Z,8.00
2019-01-27T17:07:24.954Z,8.00
2019-01-27T17:11:29.522Z,8.00
2019-01-27T17:15:34.050Z,8.00
2019-01-27T17:19:38.711Z,8.00
2019-01-27T17:23:43.240Z,8.00
2019-01-27T17:27:47.868Z,7.90
2019-01-27T17:31:52.396Z,7.90
2019-01-27T17:35:56.922Z,7.90
2019-01-27T17:40:01.493Z,7.90
2019-01-27T17:44:06.171Z,7.90
2019-01-27T17:48:10.710Z,7.90
2019-01-27T17:52:15.222Z,7.90
2019-01-27T17:56:19.759Z,7.80
2019-01-27T18:00:42.044Z,7.70
2019-01-27T18:05:20.750Z,7.70
2019-01-27T18:09:40.438Z,7.60
2019-01-27T18:13:49.130Z,7.30
2019-01-27T18:17:53.668Z,7.40
2019-01-27T18:21:58.299Z,7.30
2019-01-27T18:26:02.847Z,7.20
2019-01-27T18:30:09.567Z,7.00
2019-01-27T18:34:14.107Z,6.80
2019-01-27T18:38:18.628Z,6.60
2019-01-27T18:42:23.194Z,6.80
2019-01-27T18:46:28.020Z,6.70
2019-01-27T18:50:32.650Z,6.60
2019-01-27T18:54:56.114Z,6.60
2019-01-27T18:59:10.863Z,6.60
2019-01-27T19:03:23.694Z,6.50
2019-01-27T19:07:59.206Z,6.60
2019-01-27T19:12:28.877Z,6.40
2019-01-27T19:17:07.712Z,6.50
2019-01-27T19:21:29.943Z,6.40
2019-01-27T19:25:40.825Z,6.40
2019-01-27T19:29:49.367Z,6.40
2019-01-27T19:34:11.841Z,6.40
2019-01-27T19:38:32.936Z,6.40
2019-01-27T19:42:45.137Z,6.40
2019-01-27T19:47:20.774Z,6.40
2019-01-27T19:51:54.008Z,6.40
2019-01-27T19:56:18.774Z,6.30
2019-01-27T20:00:34.827Z,6.30
2019-01-27T20:04:58.291Z,6.30
2019-01-27T20:09:14.706Z,6.30
2019-01-27T20:13:29.878Z,6.20
2019-01-27T20:17:53.364Z,6.20
2019-01-27T20:22:17.197Z,6.20
2019-01-27T20:26:30.283Z,6.20
2019-01-27T20:30:48.340Z,6.10
2019-01-27T20:35:21.098Z,6.10
2019-01-27T20:39:44.651Z,6.10
2019-01-27T20:44:07.872Z,6.10
2019-01-27T20:48:34.358Z,6.10
2019-01-27T20:52:57.860Z,6.10
2019-01-27T20:57:15.135Z,6.10
2019-01-27T21:01:53.942Z,6.10
2019-01-27T21:06:20.407Z,6.10
2019-01-27T21:10:47.094Z,6.10
2019-01-27T21:15:09.628Z,6.10
2019-01-27T21:19:21.899Z,6.10
2019-01-27T21:23:26.461Z,6.10
2019-01-27T21:27:30.991Z,6.10
2019-01-27T21:31:35.535Z,6.10
2019-01-27T21:35:40.078Z,6.20
2019-01-27T21:39:44.583Z,6.20
2019-01-27T21:43:49.316Z,6.20
2019-01-27T21:47:53.814Z,6.20
2019-01-27T21:51:58.362Z,6.10
2019-01-27T21:56:02.871Z,6.20
2019-01-27T22:00:09.872Z,6.10
2019-01-27T22:04:14.510Z,6.10
2019-01-27T22:08:19.048Z,6.10
2019-01-27T22:12:23.587Z,6.10
2019-01-27T22:16:28.124Z,6.10
2019-01-27T22:20:32.652Z,6.00
2019-01-27T22:24:37.213Z,6.00
2019-01-27T22:28:41.786Z,5.90
2019-01-27T22:32:46.316Z,5.90
2019-01-27T22:36:50.827Z,5.80
2019-01-27T22:40:55.348Z,5.80
2019-01-27T22:44:59.904Z,5.70
2019-01-27T22:49:04.545Z,5.70
2019-01-27T22:53:09.065Z,5.70
2019-01-27T22:57:13.572Z,5.60
2019-01-27T23:01:20.295Z,5.60
2019-01-27T23:05:24.843Z,5.50
2019-01-27T23:09:29.387Z,5.50
2019-01-27T23:13:33.978Z,5.60
2019-01-27T23:17:38.475Z,5.60
2019-01-27T23:21:43.372Z,5.60
2019-01-27T23:25:47.911Z,5.50
2019-01-27T23:29:52.483Z,5.50
2019-01-27T23:33:57.027Z,5.40
2019-01-27T23:38:01.541Z,5.40
2019-01-27T23:42:06.139Z,5.40
2019-01-27T23:46:10.672Z,5.50
2019-01-27T23:50:15.164Z,5.40
2019-01-27T23:54:19.706Z,5.40
2019-01-27T23:58:24.248Z,5.40
